Bagley, Iowa
Current Conditions -  °F | °C
As of 1:55 PM on Sunday 23 Nov 2014 (Local Time) from KPRO Reporting Station
Haze Haze  
Wind Chill: 50°   Ceiling: 700
Heat Index: 50°   Visibility: 3mi
Dew Point: 48°   Wind: 20mph
Humidity: 94%   Direction: 320°NW
Pressure: 29.37"   Gusts: 25mph
Location:  41.85°N, 94.43°W
Report Text: KPRO 231955Z AUTO 32017G22KT 3SM BR OVC007 10/09 A2937 RMK AO2 P0001 T01010091
Loading
Personal Weather Stations






























Interactive Weather Map New forecast layout! Learn more

10-Day Weather Forecast

Advertisements
Track Severe Weather on mobile